createdAt,value
2023-01-17T00:01:08.931Z,78.70
2023-01-17T00:04:30.712Z,79.02
2023-01-17T00:07:51.286Z,78.81
2023-01-17T00:10:52.867Z,78.11
2023-01-17T00:13:54.430Z,78.97
2023-01-17T00:16:55.925Z,78.86
2023-01-17T00:20:16.663Z,79.08
2023-01-17T00:23:43.370Z,78.83
2023-01-17T00:27:03.843Z,79.13
2023-01-17T00:30:06.157Z,79.81
2023-01-17T00:33:07.669Z,79.89
2023-01-17T00:36:10.495Z,80.32
2023-01-17T00:39:12.026Z,80.45
2023-01-17T00:42:13.502Z,80.78
2023-01-17T00:45:33.273Z,80.14
2023-01-17T00:48:53.689Z,80.36
2023-01-17T00:52:13.962Z,80.81
2023-01-17T00:55:33.802Z,81.49
2023-01-17T00:58:53.994Z,82.25
2023-01-17T01:02:13.951Z,82.44
2023-01-17T01:05:34.664Z,82.43
2023-01-17T01:08:54.998Z,82.55
2023-01-17T01:12:15.188Z,82.58
2023-01-17T01:15:35.662Z,82.97
2023-01-17T01:18:55.529Z,83.17
2023-01-17T01:22:15.791Z,83.39
2023-01-17T01:25:35.816Z,84.17
2023-01-17T01:28:55.603Z,84.07
2023-01-17T01:32:15.551Z,84.01
2023-01-17T01:35:17.284Z,84.67
2023-01-17T01:38:20.471Z,84.42
2023-01-17T01:41:22.445Z,84.00
2023-01-17T01:44:44.679Z,83.93
2023-01-17T01:47:47.113Z,83.58
2023-01-17T01:50:50.617Z,81.26
2023-01-17T01:53:59.640Z,81.50
2023-01-17T01:57:04.958Z,80.16
2023-01-17T02:00:16.480Z,80.07
2023-01-17T02:03:25.992Z,80.23
2023-01-17T02:06:32.276Z,79.19
2023-01-17T02:09:34.521Z,79.04
2023-01-17T02:12:36.286Z,77.74
2023-01-17T02:15:57.115Z,76.04
2023-01-17T02:19:27.844Z,76.12
2023-01-17T02:22:39.753Z,76.30
2023-01-17T02:26:18.753Z,76.46
2023-01-17T02:29:26.065Z,76.66
2023-01-17T02:32:30.259Z,76.30
2023-01-17T02:35:39.306Z,75.23
2023-01-17T02:38:58.482Z,74.75
2023-01-17T02:42:09.507Z,75.32
2023-01-17T02:45:19.448Z,75.57
2023-01-17T02:48:24.630Z,75.13
2023-01-17T02:51:56.175Z,75.19
2023-01-17T02:55:07.904Z,75.15
2023-01-17T02:58:41.884Z,75.43
2023-01-17T03:01:54.040Z,76.01
2023-01-17T03:05:02.833Z,76.19
2023-01-17T03:08:05.506Z,76.33
2023-01-17T03:11:09.642Z,76.49
2023-01-17T03:14:11.116Z,76.62
2023-01-17T03:17:12.772Z,76.43
2023-01-17T03:20:14.408Z,76.77
2023-01-17T03:23:16.003Z,76.86
2023-01-17T03:26:17.824Z,76.78
2023-01-17T03:29:19.413Z,77.30
2023-01-17T03:32:20.958Z,76.82
2023-01-17T03:35:22.515Z,77.29
2023-01-17T03:38:28.841Z,77.84
2023-01-17T03:41:30.355Z,77.74
2023-01-17T03:44:31.972Z,77.14
2023-01-17T03:47:35.178Z,77.14
2023-01-17T03:50:37.000Z,76.78
2023-01-17T03:53:38.692Z,76.68
2023-01-17T03:56:40.525Z,76.23
2023-01-17T03:59:42.152Z,76.00
2023-01-17T04:02:43.802Z,76.20
2023-01-17T04:05:45.432Z,75.71
2023-01-17T04:08:47.092Z,75.74
2023-01-17T04:11:50.902Z,75.83
2023-01-17T04:14:52.682Z,75.26
2023-01-17T04:17:54.354Z,75.90
2023-01-17T04:20:56.023Z,76.54
2023-01-17T04:23:57.566Z,76.12
2023-01-17T04:26:59.669Z,76.56
2023-01-17T04:30:01.269Z,76.33
2023-01-17T04:33:03.320Z,76.66
2023-01-17T04:36:05.358Z,76.57
2023-01-17T04:39:07.406Z,76.22
2023-01-17T04:42:08.994Z,76.53
2023-01-17T04:45:11.384Z,75.90
2023-01-17T04:48:13.123Z,76.43
2023-01-17T04:51:14.738Z,76.74
2023-01-17T04:54:16.450Z,77.41
2023-01-17T04:57:18.803Z,77.64
2023-01-17T05:00:22.712Z,78.79
2023-01-17T05:03:25.513Z,80.31
2023-01-17T05:06:27.200Z,81.68
2023-01-17T05:09:28.729Z,83.35
2023-01-17T05:12:30.628Z,84.76
2023-01-17T05:15:32.394Z,85.54
2023-01-17T05:18:34.004Z,87.14
2023-01-17T05:21:35.550Z,88.38
2023-01-17T05:24:37.408Z,89.60
2023-01-17T05:27:38.928Z,90.82
2023-01-17T05:30:41.070Z,91.95
2023-01-17T05:33:42.765Z,93.06
2023-01-17T05:36:44.274Z,94.39
2023-01-17T05:39:45.780Z,95.12
2023-01-17T05:42:49.394Z,96.43
2023-01-17T05:45:50.967Z,97.30
2023-01-17T05:48:52.490Z,98.82
2023-01-17T05:51:54.998Z,98.96
2023-01-17T05:54:56.723Z,99.27
2023-01-17T05:57:58.920Z,99.73
2023-01-17T06:01:01.273Z,100.00
2023-01-17T06:04:02.794Z,100.00
2023-01-17T06:07:04.387Z,100.00
2023-01-17T06:10:06.611Z,100.00
2023-01-17T06:13:14.325Z,100.00
2023-01-17T06:16:16.066Z,100.00
2023-01-17T06:19:17.637Z,100.00
2023-01-17T06:22:19.184Z,100.00
2023-01-17T06:25:20.841Z,100.00
2023-01-17T06:28:23.495Z,100.00
2023-01-17T06:31:25.106Z,100.00
2023-01-17T06:34:26.877Z,100.00
2023-01-17T06:37:28.508Z,100.00
2023-01-17T06:40:30.730Z,100.00
2023-01-17T06:43:33.759Z,100.00
2023-01-17T06:46:35.562Z,100.00
2023-01-17T06:49:37.245Z,100.00
2023-01-17T06:52:39.149Z,100.00
2023-01-17T06:55:41.369Z,100.00
2023-01-17T06:58:42.933Z,100.00
2023-01-17T07:01:44.552Z,100.00
2023-01-17T07:04:46.208Z,100.00
2023-01-17T07:07:48.021Z,100.00
2023-01-17T07:10:49.645Z,100.00
2023-01-17T07:13:51.178Z,100.00
2023-01-17T07:16:52.685Z,100.00
2023-01-17T07:19:54.425Z,100.00
2023-01-17T07:22:56.294Z,100.00
2023-01-17T07:26:00.099Z,100.00
2023-01-17T07:29:01.612Z,100.00
2023-01-17T07:32:03.412Z,100.00
2023-01-17T07:35:06.198Z,100.00
2023-01-17T07:38:13.015Z,100.00
2023-01-17T07:41:14.661Z,100.00
2023-01-17T07:44:16.363Z,100.00
2023-01-17T07:47:17.960Z,100.00
2023-01-17T07:50:19.586Z,100.00
2023-01-17T07:53:28.571Z,100.00
2023-01-17T07:56:30.143Z,100.00
2023-01-17T07:59:33.752Z,100.00
2023-01-17T08:02:35.273Z,100.00
2023-01-17T08:05:37.588Z,100.00
2023-01-17T08:08:39.819Z,100.00
2023-01-17T08:11:41.303Z,100.00
2023-01-17T08:14:42.794Z,100.00
2023-01-17T08:17:48.990Z,100.00
2023-01-17T08:20:50.578Z,100.00
2023-01-17T08:23:52.562Z,100.00
2023-01-17T08:26:57.179Z,100.00
2023-01-17T08:29:59.265Z,100.00
2023-01-17T08:33:01.065Z,100.00
2023-01-17T08:36:02.722Z,100.00
2023-01-17T08:39:04.268Z,98.95
2023-01-17T08:42:06.081Z,97.15
2023-01-17T08:45:10.237Z,96.36
2023-01-17T08:48:11.727Z,94.51
2023-01-17T08:51:13.908Z,94.54
2023-01-17T08:54:15.774Z,93.84
2023-01-17T08:57:17.293Z,93.51
2023-01-17T09:00:19.315Z,93.24
2023-01-17T09:03:21.432Z,92.47
2023-01-17T09:06:23.016Z,91.64
2023-01-17T09:09:24.862Z,90.27
2023-01-17T09:12:31.159Z,87.94
2023-01-17T09:15:32.913Z,86.75
2023-01-17T09:18:35.803Z,86.16
2023-01-17T09:21:37.619Z,85.41
2023-01-17T09:24:39.725Z,84.29
2023-01-17T09:27:45.469Z,83.16
2023-01-17T09:30:47.370Z,82.87
2023-01-17T09:33:50.445Z,80.76
2023-01-17T09:36:52.043Z,80.25
2023-01-17T09:39:53.860Z,78.48
2023-01-17T09:43:01.427Z,78.81
2023-01-17T09:46:03.988Z,77.61
2023-01-17T09:49:31.812Z,76.36
2023-01-17T09:52:33.701Z,76.34
2023-01-17T09:55:41.601Z,76.65
2023-01-17T09:58:51.946Z,76.37
2023-01-17T10:02:02.685Z,75.77
2023-01-17T10:05:37.442Z,74.70
2023-01-17T10:08:53.147Z,73.67
2023-01-17T10:12:00.685Z,73.38
2023-01-17T10:15:17.252Z,73.59
2023-01-17T10:18:46.449Z,72.86
2023-01-17T10:21:59.050Z,72.26
2023-01-17T10:25:15.947Z,71.54
2023-01-17T10:28:40.452Z,70.87
2023-01-17T10:31:51.170Z,70.79
2023-01-17T10:34:53.745Z,70.54
2023-01-17T10:37:58.423Z,70.47
2023-01-17T10:41:02.597Z,70.16
2023-01-17T10:44:10.609Z,69.86
2023-01-17T10:47:12.302Z,69.96
2023-01-17T10:50:14.193Z,69.64
2023-01-17T10:53:33.384Z,69.57
2023-01-17T10:56:36.563Z,69.17
2023-01-17T10:59:38.170Z,68.53
2023-01-17T11:02:47.568Z,68.46
2023-01-17T11:06:22.842Z,67.54
2023-01-17T11:09:38.138Z,66.86
2023-01-17T11:12:47.088Z,66.13
2023-01-17T11:15:51.963Z,65.66
2023-01-17T11:19:13.390Z,65.01
2023-01-17T11:22:16.229Z,65.13
2023-01-17T11:25:24.211Z,65.44
2023-01-17T11:28:36.592Z,65.07
2023-01-17T11:31:38.182Z,64.84
2023-01-17T11:34:39.744Z,64.56
2023-01-17T11:37:58.858Z,65.04
2023-01-17T11:41:21.238Z,64.85
2023-01-17T11:44:30.321Z,64.96
2023-01-17T11:47:32.200Z,65.10
2023-01-17T11:50:37.414Z,65.22
2023-01-17T11:53:44.278Z,65.45
2023-01-17T11:56:46.426Z,66.13
2023-01-17T11:59:48.825Z,66.16
2023-01-17T12:03:11.173Z,65.50
2023-01-17T12:06:26.357Z,66.06
2023-01-17T12:10:12.786Z,65.33
2023-01-17T12:13:48.615Z,65.65
2023-01-17T12:17:22.711Z,65.87
2023-01-17T12:20:41.432Z,66.90
2023-01-17T12:24:01.005Z,66.89
2023-01-17T12:27:13.194Z,67.53
2023-01-17T12:30:52.185Z,67.13
2023-01-17T12:34:00.854Z,67.08
2023-01-17T12:37:29.571Z,66.51
2023-01-17T12:40:39.957Z,66.46
2023-01-17T12:43:43.007Z,66.90
2023-01-17T12:46:56.973Z,66.63
2023-01-17T12:50:23.180Z,65.88
2023-01-17T12:53:32.935Z,65.87
2023-01-17T12:56:46.509Z,66.77
2023-01-17T13:00:12.590Z,66.21
2023-01-17T13:03:43.291Z,64.86
2023-01-17T13:06:51.830Z,64.65
2023-01-17T13:10:00.444Z,64.31
2023-01-17T13:13:16.583Z,64.19
2023-01-17T13:16:26.041Z,64.58
2023-01-17T13:19:36.364Z,63.96
2023-01-17T13:22:51.817Z,63.37
2023-01-17T13:25:59.383Z,62.89
2023-01-17T13:29:22.274Z,63.93
2023-01-17T13:33:01.615Z,63.43
2023-01-17T13:36:21.328Z,63.42
2023-01-17T13:39:46.171Z,63.28
2023-01-17T13:43:01.481Z,63.48
2023-01-17T13:46:04.027Z,63.67
2023-01-17T13:49:23.301Z,63.08
2023-01-17T13:52:24.796Z,63.68
2023-01-17T13:56:14.404Z,63.71
2023-01-17T13:59:42.276Z,63.38
2023-01-17T14:02:44.695Z,64.27
2023-01-17T14:05:49.249Z,64.08
2023-01-17T14:08:50.861Z,63.38
2023-01-17T14:11:57.578Z,64.55
2023-01-17T14:15:01.006Z,64.99
2023-01-17T14:18:04.592Z,65.94
2023-01-17T14:21:11.276Z,66.54
2023-01-17T14:24:18.292Z,66.42
2023-01-17T14:27:24.360Z,66.89
2023-01-17T14:30:32.045Z,68.07
2023-01-17T14:33:38.573Z,68.93
2023-01-17T14:36:40.087Z,70.37
2023-01-17T14:39:46.877Z,70.58
2023-01-17T14:42:57.853Z,72.05
2023-01-17T14:46:04.311Z,72.13
2023-01-17T14:49:20.243Z,73.53
2023-01-17T14:52:23.485Z,75.24
2023-01-17T14:55:27.654Z,76.58
2023-01-17T14:58:32.011Z,77.23
2023-01-17T15:01:39.990Z,78.27
2023-01-17T15:04:42.693Z,78.42
2023-01-17T15:07:46.945Z,80.46
2023-01-17T15:11:03.055Z,81.06
2023-01-17T15:14:06.220Z,82.15
2023-01-17T15:17:25.782Z,83.90
2023-01-17T15:20:27.653Z,85.08
2023-01-17T15:23:34.479Z,85.66
2023-01-17T15:26:45.995Z,86.38
2023-01-17T15:29:48.200Z,86.89
2023-01-17T15:32:51.244Z,87.10
2023-01-17T15:36:04.542Z,87.49
2023-01-17T15:39:18.785Z,87.70
2023-01-17T15:42:26.051Z,87.61
2023-01-17T15:45:32.382Z,87.16
2023-01-17T15:48:40.439Z,88.01
2023-01-17T15:51:56.615Z,88.44
2023-01-17T15:55:10.921Z,88.41
2023-01-17T15:58:25.544Z,88.87
2023-01-17T16:01:28.408Z,89.21
2023-01-17T16:04:35.419Z,91.20
2023-01-17T16:07:36.985Z,92.27
2023-01-17T16:10:39.337Z,92.73
2023-01-17T16:13:43.229Z,93.91
2023-01-17T16:16:54.261Z,94.80
2023-01-17T16:19:56.044Z,97.16
2023-01-17T16:22:59.007Z,97.93
2023-01-17T16:26:01.691Z,100.00
2023-01-17T16:29:03.333Z,99.82
2023-01-17T16:32:08.646Z,100.00
2023-01-17T16:35:19.147Z,100.00
2023-01-17T16:38:20.762Z,100.00
2023-01-17T16:41:22.414Z,100.00
2023-01-17T16:44:23.963Z,100.00
2023-01-17T16:47:25.582Z,100.00
2023-01-17T16:50:27.130Z,100.00
2023-01-17T16:53:28.677Z,100.00
2023-01-17T16:56:30.492Z,100.00
2023-01-17T16:59:42.538Z,100.00
2023-01-17T17:02:52.638Z,100.00
2023-01-17T17:05:56.838Z,100.00
2023-01-17T17:09:01.134Z,100.00
2023-01-17T17:12:04.965Z,100.00
2023-01-17T17:15:07.295Z,100.00
2023-01-17T17:18:13.940Z,100.00
2023-01-17T17:21:15.565Z,100.00
2023-01-17T17:24:17.480Z,100.00
2023-01-17T17:27:19.184Z,100.00
2023-01-17T17:30:20.704Z,100.00
2023-01-17T17:33:22.233Z,100.00
2023-01-17T17:36:23.780Z,100.00
2023-01-17T17:39:25.253Z,100.00
2023-01-17T17:42:26.801Z,100.00
2023-01-17T17:45:28.337Z,100.00
2023-01-17T17:48:30.043Z,100.00
2023-01-17T17:51:35.005Z,100.00
2023-01-17T17:54:36.854Z,100.00
2023-01-17T17:57:38.641Z,100.00
2023-01-17T18:00:40.238Z,100.00
2023-01-17T18:03:41.834Z,100.00
2023-01-17T18:06:44.048Z,100.00
2023-01-17T18:09:45.663Z,100.00
2023-01-17T18:12:47.193Z,100.00
2023-01-17T18:15:48.671Z,100.00
2023-01-17T18:18:53.000Z,100.00
2023-01-17T18:21:54.726Z,100.00
2023-01-17T18:24:56.619Z,100.00
2023-01-17T18:27:58.189Z,100.00
2023-01-17T18:31:05.213Z,100.00
2023-01-17T18:34:29.212Z,100.00
2023-01-17T18:37:30.917Z,100.00
2023-01-17T18:40:34.784Z,100.00
2023-01-17T18:43:36.405Z,100.00
2023-01-17T18:46:38.922Z,100.00
2023-01-17T18:49:41.295Z,100.00
2023-01-17T18:52:43.032Z,100.00
2023-01-17T18:55:52.561Z,100.00
2023-01-17T18:58:55.609Z,100.00
2023-01-17T19:01:59.529Z,100.00
2023-01-17T19:05:05.484Z,100.00
2023-01-17T19:08:07.045Z,100.00
2023-01-17T19:11:09.396Z,100.00
2023-01-17T19:14:12.440Z,100.00
2023-01-17T19:17:14.145Z,100.00
2023-01-17T19:20:15.950Z,100.00
2023-01-17T19:23:17.563Z,100.00
2023-01-17T19:26:23.961Z,100.00
2023-01-17T19:29:26.800Z,100.00
2023-01-17T19:32:28.386Z,100.00
2023-01-17T19:35:30.069Z,100.00
2023-01-17T19:38:33.673Z,100.00
2023-01-17T19:41:38.097Z,100.00
2023-01-17T19:44:39.753Z,100.00
2023-01-17T19:47:41.365Z,100.00
2023-01-17T19:50:42.919Z,100.00
2023-01-17T19:53:44.704Z,100.00
2023-01-17T19:56:46.252Z,100.00
2023-01-17T19:59:48.468Z,100.00
2023-01-17T20:02:50.028Z,100.00
2023-01-17T20:05:57.700Z,100.00
2023-01-17T20:08:59.310Z,100.00
2023-01-17T20:12:01.040Z,100.00
2023-01-17T20:15:02.612Z,100.00
2023-01-17T20:18:04.243Z,100.00
2023-01-17T20:21:12.327Z,100.00
2023-01-17T20:24:14.320Z,100.00
2023-01-17T20:27:17.495Z,100.00
2023-01-17T20:30:20.748Z,100.00
2023-01-17T20:33:23.284Z,100.00
2023-01-17T20:36:29.009Z,100.00
2023-01-17T20:39:30.512Z,100.00
2023-01-17T20:42:36.206Z,99.48
2023-01-17T20:45:38.022Z,98.55
2023-01-17T20:48:47.447Z,99.40
2023-01-17T20:51:49.758Z,99.46
2023-01-17T20:54:54.392Z,100.00
2023-01-17T20:57:57.463Z,100.00
2023-01-17T21:00:59.265Z,100.00
2023-01-17T21:04:00.922Z,100.00
2023-01-17T21:07:02.428Z,100.00
2023-01-17T21:10:04.328Z,100.00
2023-01-17T21:13:05.881Z,100.00
2023-01-17T21:16:09.348Z,100.00
2023-01-17T21:19:14.270Z,100.00
2023-01-17T21:22:16.916Z,100.00
2023-01-17T21:25:18.590Z,100.00
2023-01-17T21:28:20.409Z,100.00
2023-01-17T21:31:30.408Z,100.00
2023-01-17T21:34:33.495Z,100.00
2023-01-17T21:37:35.123Z,100.00
2023-01-17T21:40:36.682Z,100.00
2023-01-17T21:43:39.698Z,100.00
2023-01-17T21:46:41.871Z,100.00
2023-01-17T21:49:43.494Z,100.00
2023-01-17T21:52:47.230Z,100.00
2023-01-17T21:56:07.178Z,100.00
2023-01-17T21:59:08.789Z,100.00
2023-01-17T22:02:10.679Z,100.00
2023-01-17T22:05:13.501Z,100.00
2023-01-17T22:08:15.328Z,100.00
2023-01-17T22:11:19.913Z,100.00
2023-01-17T22:14:21.555Z,100.00
2023-01-17T22:17:23.130Z,98.14
2023-01-17T22:20:24.902Z,95.67
2023-01-17T22:23:26.866Z,96.61
2023-01-17T22:26:30.760Z,95.85
2023-01-17T22:29:34.027Z,96.73
2023-01-17T22:32:35.524Z,96.58
2023-01-17T22:35:37.099Z,94.62
2023-01-17T22:38:38.693Z,93.82
2023-01-17T22:41:40.269Z,94.35
2023-01-17T22:44:41.772Z,94.82
2023-01-17T22:47:43.481Z,94.62
2023-01-17T22:50:45.664Z,92.59
2023-01-17T22:53:52.430Z,92.95
2023-01-17T22:56:54.181Z,93.64
2023-01-17T22:59:55.711Z,93.62
2023-01-17T23:02:57.647Z,91.72
2023-01-17T23:06:15.183Z,92.55
2023-01-17T23:09:17.491Z,92.40
2023-01-17T23:12:19.092Z,91.45
2023-01-17T23:15:39.233Z,91.61
2023-01-17T23:18:59.279Z,91.56
2023-01-17T23:22:21.299Z,92.02
2023-01-17T23:25:22.969Z,91.66
2023-01-17T23:28:24.518Z,90.73
2023-01-17T23:31:26.084Z,90.33
2023-01-17T23:34:27.650Z,91.03
2023-01-17T23:37:48.883Z,90.67
2023-01-17T23:41:09.551Z,90.67
2023-01-17T23:44:11.105Z,91.59
2023-01-17T23:47:12.643Z,93.29
2023-01-17T23:50:14.310Z,95.06
2023-01-17T23:53:22.485Z,95.37
2023-01-17T23:56:24.844Z,98.47
2023-01-17T23:59:26.357Z,100.00
